Time;durP1;ratioP1;P1;durP2;ratioP2;P2;SDS_P1;SDS_P2;PMS_P1;PMS_P2;Temp;Humidity;BMP_temperature;BMP_pressure;BME280_temperature;BME280_humidity;BME280_pressure;Samples;Min_cycle;Max_cycle;Signal;HPM_P1;HPM_P2
2022/03/27 00:01:05;;;;;;;2.80;0.75;;;;;;;5.48;36.73;100093.34;1820156;76;21959;-53
2022/03/27 00:03:31;;;;;;;6.30;1.00;;;;;;;5.49;36.89;100095.86;1824787;77;21047;-54
2022/03/27 00:05:58;;;;;;;3.37;0.80;;;;;;;5.48;36.74;100102.03;1831286;76;21564;-53
2022/03/27 00:08:25;;;;;;;6.00;0.93;;;;;;;5.47;36.87;100100.83;1830699;77;21026;-54
2022/03/27 00:13:38;;;;;;;10.13;1.32;;;;;;;5.37;36.60;100096.65;1826159;76;22014;-51
2022/03/27 00:16:06;;;;;;;12.95;1.30;;;;;;;5.34;36.29;100123.75;1829618;76;21018;-51
2022/03/27 00:18:33;;;;;;;7.60;1.52;;;;;;;5.30;35.61;100102.72;1826348;76;21106;-51
2022/03/27 00:21:01;;;;;;;6.95;0.98;;;;;;;5.27;35.49;100117.73;1825593;76;21109;-53
2022/03/27 00:23:28;;;;;;;4.12;1.00;;;;;;;5.17;34.63;100112.23;1831700;77;21029;-52
2022/03/27 00:25:55;;;;;;;5.72;0.93;;;;;;;5.10;34.62;100113.55;1832194;76;21469;-52
2022/03/27 00:28:22;;;;;;;4.12;1.00;;;;;;;5.05;34.76;100111.70;1826129;77;20979;-52
2022/03/27 00:30:49;;;;;;;7.75;0.85;;;;;;;5.00;34.85;100111.97;1830407;77;21028;-51
2022/03/27 00:33:16;;;;;;;5.10;1.12;;;;;;;4.96;35.11;100137.41;1834480;76;21105;-53
2022/03/27 00:35:43;;;;;;;6.45;0.90;;;;;;;4.94;35.09;100133.20;1832723;77;21022;-53
2022/03/27 00:38:10;;;;;;;6.85;1.30;;;;;;;4.87;35.21;100122.30;1823932;77;22131;-52
2022/03/27 00:40:36;;;;;;;8.70;1.05;;;;;;;4.86;35.31;100137.59;1826240;76;20984;-53
2022/03/27 00:43:04;;;;;;;6.20;1.10;;;;;;;4.79;35.22;100134.95;1838868;76;21065;-53
2022/03/27 00:45:32;;;;;;;4.90;0.80;;;;;;;4.75;35.51;100134.78;1830189;76;21065;-53
2022/03/27 00:47:58;;;;;;;6.30;1.35;;;;;;;4.74;35.44;100143.52;1845341;76;21014;-53
2022/03/27 00:50:25;;;;;;;15.88;1.57;;;;;;;4.73;35.41;100147.07;1837356;77;21200;-53
2022/03/27 00:52:52;;;;;;;7.10;1.30;;;;;;;4.73;35.53;100162.70;1834340;76;21495;-52
2022/03/27 00:55:19;;;;;;;5.37;1.42;;;;;;;4.68;35.27;100157.77;1838842;76;20997;-53
2022/03/27 00:57:46;;;;;;;5.72;1.57;;;;;;;4.66;35.26;100160.93;1820591;77;22342;-53
2022/03/27 01:00:21;;;;;;;4.95;1.47;;;;;;;4.64;35.01;100167.53;1826280;76;21049;-53
2022/03/27 01:02:50;;;;;;;10.15;1.60;;;;;;;4.62;35.44;100144.64;1833162;77;21228;-53
2022/03/27 01:05:17;;;;;;;6.42;1.30;;;;;;;4.58;35.56;100174.39;1832892;76;21042;-53
2022/03/27 01:07:44;;;;;;;6.03;1.47;;;;;;;4.57;35.52;100177.95;1838985;76;21038;-54
2022/03/27 01:10:11;;;;;;;7.17;1.47;;;;;;;4.52;35.78;100173.44;1839434;77;21056;-53
2022/03/27 01:12:39;;;;;;;7.08;1.70;;;;;;;4.52;36.16;100177.34;1835748;77;21060;-53
2022/03/27 01:15:33;;;;;;;7.50;1.62;;;;;;;4.51;35.92;100174.86;1833876;76;21032;-54
2022/03/27 01:18:00;;;;;;;6.22;1.50;;;;;;;4.47;36.02;100181.98;1718454;82;21065;-54
2022/03/27 01:20:33;;;;;;;7.90;1.92;;;;;;;4.44;36.09;100179.59;1742153;80;21053;-54
2022/03/27 01:23:00;;;;;;;3.67;1.45;;;;;;;4.38;35.91;100179.93;1727865;77;21058;-55
2022/03/27 01:25:27;;;;;;;6.47;2.08;;;;;;;4.39;36.14;100184.23;1830830;77;21101;-54
2022/03/27 01:27:54;;;;;;;7.00;1.80;;;;;;;4.37;36.33;100179.55;1825762;77;21863;-53
2022/03/27 01:30:21;;;;;;;5.37;1.72;;;;;;;4.36;36.49;100183.09;1829905;77;20963;-54
2022/03/27 01:32:50;;;;;;;6.95;1.52;;;;;;;4.34;36.65;100191.44;1843205;77;21090;-54
2022/03/27 01:35:16;;;;;;;4.00;1.27;;;;;;;4.32;36.56;100189.39;1835454;77;21120;-54
2022/03/27 01:37:42;;;;;;;5.20;0.93;;;;;;;4.30;36.77;100201.67;1840375;77;21057;-53
2022/03/27 01:40:11;;;;;;;3.05;0.90;;;;;;;4.26;36.46;100199.23;1833488;76;21139;-54
2022/03/27 01:42:39;;;;;;;5.05;0.93;;;;;;;4.26;36.46;100195.80;1827516;76;21576;-53
2022/03/27 01:45:08;;;;;;;3.52;0.70;;;;;;;4.25;36.62;100209.30;1827745;76;20980;-54
2022/03/27 01:47:35;;;;;;;4.03;0.70;;;;;;;4.22;36.64;100202.95;1818281;77;21518;-53
2022/03/27 01:50:07;;;;;;;5.22;1.17;;;;;;;4.21;36.91;100216.88;1831795;76;20995;-53
2022/03/27 01:52:34;;;;;;;3.87;1.05;;;;;;;4.20;37.08;100219.13;1824832;77;22820;-54
2022/03/27 01:55:02;;;;;;;6.12;1.27;;;;;;;4.18;37.22;100208.41;1838525;77;21096;-54
2022/03/27 01:57:29;;;;;;;8.98;1.35;;;;;;;4.16;37.41;100198.08;1838791;76;21481;-54
2022/03/27 01:59:56;;;;;;;6.80;1.47;;;;;;;4.21;37.45;100227.30;1843018;76;21045;-54
2022/03/27 02:02:25;;;;;;;7.33;1.10;;;;;;;4.19;37.85;100233.06;1834230;76;21513;-54
2022/03/27 02:04:55;;;;;;;3.80;0.95;;;;;;;4.14;38.55;100223.37;1759861;80;22199;-54
2022/03/27 02:07:22;;;;;;;5.62;1.47;;;;;;;4.07;40.01;100216.84;1804739;78;21022;-54
2022/03/27 02:09:49;;;;;;;7.45;1.57;;;;;;;4.03;39.90;100221.82;1801166;79;21112;-53
2022/03/27 02:12:16;;;;;;;5.85;0.90;;;;;;;4.01;39.85;100236.69;1802289;78;22226;-54
2022/03/27 02:14:44;;;;;;;5.55;1.35;;;;;;;3.96;39.88;100233.03;1810109;78;20995;-53
2022/03/27 02:17:11;;;;;;;5.45;1.20;;;;;;;3.96;40.00;100251.25;1803856;78;21124;-53
2022/03/27 02:19:39;;;;;;;5.15;1.30;;;;;;;3.97;40.65;100265.10;1805493;78;21509;-53
2022/03/27 02:22:06;;;;;;;3.90;1.00;;;;;;;3.93;40.47;100260.53;1805960;78;21002;-54
2022/03/27 02:24:32;;;;;;;5.35;0.85;;;;;;;3.88;40.71;100214.39;1777354;78;21076;-53
2022/03/27 02:26:59;;;;;;;10.38;1.37;;;;;;;3.87;41.21;100264.79;1773022;80;21110;-53
2022/03/27 02:29:26;;;;;;;4.00;0.93;;;;;;;3.89;41.73;100270.74;1791645;79;21184;-53
2022/03/27 02:31:54;;;;;;;6.17;0.90;;;;;;;3.87;41.81;100267.39;1796530;78;21010;-54
2022/03/27 02:34:20;;;;;;;7.60;1.37;;;;;;;3.82;42.04;100240.77;1794311;78;21136;-54
2022/03/27 02:36:47;;;;;;;5.30;1.20;;;;;;;3.81;42.28;100263.34;1776139;78;21751;-53
2022/03/27 02:39:13;;;;;;;4.87;1.15;;;;;;;3.78;42.58;100254.39;1773813;79;21121;-54
2022/03/27 02:41:41;;;;;;;4.25;1.12;;;;;;;3.80;42.76;100278.59;1780226;78;21105;-53
2022/03/27 02:44:09;;;;;;;3.65;0.90;;;;;;;3.77;42.52;100293.53;1784853;79;21076;-53
2022/03/27 02:46:36;;;;;;;4.15;0.70;;;;;;;3.75;42.77;100291.02;1789467;78;21101;-52
2022/03/27 02:49:03;;;;;;;3.40;0.60;;;;;;;3.72;42.50;100297.67;1769717;79;21101;-53
2022/03/27 02:51:29;;;;;;;4.85;0.90;;;;;;;3.72;42.63;100295.07;1785454;78;21085;-54
2022/03/27 02:53:56;;;;;;;2.85;0.47;;;;;;;3.75;42.96;100298.82;1796902;79;21137;-52
2022/03/27 02:56:22;;;;;;;5.28;0.82;;;;;;;3.71;42.88;100298.11;1795914;79;21046;-53
2022/03/27 02:58:49;;;;;;;3.52;0.80;;;;;;;3.71;42.75;100297.28;1768174;80;21018;-54
2022/03/27 03:01:18;;;;;;;7.60;1.32;;;;;;;3.65;42.89;100288.52;1760104;80;21120;-54
2022/03/27 03:03:45;;;;;;;5.17;0.98;;;;;;;3.69;43.12;100309.07;1773711;80;21072;-52
2022/03/27 03:06:13;;;;;;;6.33;1.35;;;;;;;3.67;43.14;100320.50;1769840;80;21120;-52
2022/03/27 03:08:40;;;;;;;2.62;0.70;;;;;;;3.60;43.17;100314.77;1734837;80;21645;-52
2022/03/27 03:11:08;;;;;;;3.77;0.90;;;;;;;3.60;43.25;100323.88;1746562;80;21049;-52
2022/03/27 03:13:35;;;;;;;4.42;0.80;;;;;;;3.61;43.48;100322.94;1769278;80;21073;-52
2022/03/27 03:16:03;;;;;;;5.95;0.95;;;;;;;3.55;43.32;100321.98;1767320;80;21481;-52
2022/03/27 03:18:30;;;;;;;4.28;1.07;;;;;;;3.55;43.16;100342.80;1787632;78;22305;-54
2022/03/27 03:20:59;;;;;;;5.00;0.65;;;;;;;3.54;43.57;100338.50;1736076;80;21040;-52
2022/03/27 03:23:28;;;;;;;3.65;0.95;;;;;;;3.51;43.52;100339.52;1775082;80;21010;-52
2022/03/27 03:25:55;;;;;;;8.20;1.00;;;;;;;3.51;43.88;100333.01;1761803;80;21061;-51
2022/03/27 03:28:21;;;;;;;4.87;1.02;;;;;;;3.50;43.64;100350.83;1766037;80;21041;-52
2022/03/27 03:30:48;;;;;;;4.65;0.75;;;;;;;3.45;43.60;100345.02;1755413;80;21141;-52
2022/03/27 03:33:15;;;;;;;4.22;0.45;;;;;;;3.44;43.42;100352.90;1759914;80;21454;-51
2022/03/27 03:35:43;;;;;;;4.37;0.65;;;;;;;3.43;43.60;100357.70;1745272;80;21060;-52
2022/03/27 03:38:09;;;;;;;3.90;0.72;;;;;;;3.39;43.88;100358.80;1741632;81;21052;-52
2022/03/27 03:40:37;;;;;;;4.80;1.20;;;;;;;3.39;43.92;100357.02;1771488;80;21097;-52
2022/03/27 03:43:04;;;;;;;4.50;0.90;;;;;;;3.35;43.67;100356.81;1735526;80;21100;-53
2022/03/27 03:45:32;;;;;;;3.80;0.80;;;;;;;3.32;43.61;100363.47;1732565;80;21108;-53
2022/03/27 03:48:00;;;;;;;4.22;0.70;;;;;;;3.31;43.68;100380.84;1762071;80;21536;-52
2022/03/27 03:50:27;;;;;;;3.90;0.82;;;;;;;3.32;43.89;100380.37;1763714;80;21006;-53
2022/03/27 03:52:54;;;;;;;3.37;0.80;;;;;;;3.29;43.41;100387.02;1769666;80;21038;-54
2022/03/27 03:55:21;;;;;;;3.50;0.78;;;;;;;3.27;43.33;100385.79;1746248;80;21645;-52
2022/03/27 03:57:47;;;;;;;5.17;1.22;;;;;;;3.26;43.40;100391.93;1782108;80;21008;-53
2022/03/27 04:00:16;;;;;;;3.52;0.78;;;;;;;3.31;43.50;100402.08;1782663;80;20987;-53
2022/03/27 04:02:42;;;;;;;3.92;0.78;;;;;;;3.30;43.02;100395.22;1793852;78;21003;-54
2022/03/27 04:05:09;;;;;;;4.50;0.95;;;;;;;3.27;42.99;100409.66;1799184;79;21442;-52
2022/03/27 04:07:36;;;;;;;2.65;0.60;;;;;;;3.31;42.83;100401.64;1793956;78;21125;-52
2022/03/27 04:10:04;;;;;;;4.05;0.95;;;;;;;3.32;42.98;100405.91;1764058;80;21092;-53
2022/03/27 04:12:32;;;;;;;2.98;0.57;;;;;;;3.32;43.32;100415.48;1764324;80;21069;-53
2022/03/27 04:14:59;;;;;;;3.55;0.90;;;;;;;3.32;43.12;100400.70;1766090;80;21109;-52
2022/03/27 04:17:25;;;;;;;4.35;1.30;;;;;;;3.26;43.14;100419.67;1765018;80;21119;-52
2022/03/27 04:19:52;;;;;;;5.17;1.35;;;;;;;3.31;43.48;100421.16;1776520;80;21134;-52
2022/03/27 04:22:18;;;;;;;4.08;1.35;;;;;;;3.28;43.28;100416.56;1776477;79;21097;-52
2022/03/27 04:24:45;;;;;;;5.72;1.12;;;;;;;3.32;43.42;100425.41;1778196;80;21133;-52
2022/03/27 04:27:12;;;;;;;4.50;1.40;;;;;;;3.31;43.76;100433.29;1772870;79;21046;-53
2022/03/27 04:29:38;;;;;;;4.33;1.32;;;;;;;3.28;44.35;100433.47;1774032;79;21046;-54
2022/03/27 04:32:06;;;;;;;4.17;1.02;;;;;;;3.29;44.59;100445.53;1769415;80;21144;-52
2022/03/27 04:34:34;;;;;;;3.62;1.17;;;;;;;3.30;44.56;100446.77;1760716;80;21586;-52
2022/03/27 04:37:03;;;;;;;3.77;1.17;;;;;;;3.29;44.64;100476.74;1768227;78;21080;-53
2022/03/27 04:39:29;;;;;;;6.00;1.70;;;;;;;3.25;45.01;100464.81;1778873;78;21082;-53
2022/03/27 04:41:57;;;;;;;4.72;1.22;;;;;;;3.18;45.00;100466.00;1770222;78;21355;-52
2022/03/27 04:44:23;;;;;;;6.12;1.67;;;;;;;3.16;45.13;100469.98;1775764;80;21115;-53
2022/03/27 04:46:51;;;;;;;12.37;2.20;;;;;;;3.15;45.29;100465.71;1796984;78;21097;-53
2022/03/27 04:49:17;;;;;;;8.20;2.08;;;;;;;3.14;45.60;100475.72;1778400;80;22458;-53
2022/03/27 04:51:45;;;;;;;6.15;1.60;;;;;;;3.13;45.77;100483.98;1778417;78;21070;-54
2022/03/27 04:54:12;;;;;;;5.22;1.40;;;;;;;3.12;45.60;100484.89;1794659;78;21118;-54
2022/03/27 04:56:40;;;;;;;3.17;1.10;;;;;;;3.05;45.75;100457.97;1785425;79;21108;-52
2022/03/27 04:59:07;;;;;;;5.80;1.35;;;;;;;3.03;45.93;100510.03;1767783;78;21094;-53
2022/03/27 05:01:34;;;;;;;4.35;1.40;;;;;;;2.94;46.96;100509.14;1769296;80;21674;-52
2022/03/27 05:04:01;;;;;;;4.55;1.22;;;;;;;2.90;47.42;100514.11;1779826;80;21544;-53
2022/03/27 05:06:29;;;;;;;4.78;1.65;;;;;;;2.89;47.73;100524.98;1774340;80;21054;-53
2022/03/27 05:09:00;;;;;;;6.00;1.47;;;;;;;2.79;48.64;100521.95;1717857;83;21154;-55
2022/03/27 05:11:28;;;;;;;4.85;1.50;;;;;;;2.75;49.33;100524.28;1731913;80;21525;-53
2022/03/27 05:13:55;;;;;;;6.30;1.20;;;;;;;2.65;49.88;100525.61;1724578;81;21129;-53
2022/03/27 05:16:22;;;;;;;4.60;1.50;;;;;;;2.65;50.43;100534.70;1715395;82;21109;-53
2022/03/27 05:18:49;;;;;;;8.25;1.67;;;;;;;2.59;50.83;100548.82;1772746;78;21128;-54
2022/03/27 05:21:18;;;;;;;9.60;1.57;;;;;;;2.48;52.76;100556.70;1763665;78;21141;-53
2022/03/27 05:23:46;;;;;;;6.35;1.07;;;;;;;2.41;53.73;100547.03;1772154;80;21112;-54
2022/03/27 05:26:12;;;;;;;4.12;1.07;;;;;;;2.35;51.95;100550.72;1725648;81;21069;-53
2022/03/27 05:28:38;;;;;;;4.65;0.93;;;;;;;2.36;52.64;100548.98;1725649;82;21473;-54
2022/03/27 05:31:08;;;;;;;3.98;1.05;;;;;;;2.38;51.50;100544.09;1719560;81;21061;-53
2022/03/27 05:33:33;;;;;;;2.42;0.47;;;;;;;2.40;51.13;100575.20;1750837;81;21160;-53
2022/03/27 05:36:00;;;;;;;1.55;0.50;;;;;;;2.45;50.82;100585.39;1722519;82;21062;-52
2022/03/27 05:38:26;;;;;;;3.05;0.70;;;;;;;2.43;50.51;100579.43;1716745;81;21085;-53
2022/03/27 05:40:53;;;;;;;3.27;0.70;;;;;;;2.43;50.63;100582.86;1773418;79;21065;-52
2022/03/27 05:43:20;;;;;;;2.15;0.62;;;;;;;2.43;51.15;100588.05;1778299;80;21687;-52
2022/03/27 05:45:47;;;;;;;4.37;0.93;;;;;;;2.51;51.74;100597.67;1776387;79;21268;-53
2022/03/27 05:48:15;;;;;;;4.83;1.10;;;;;;;2.49;52.30;100588.23;1781660;79;21040;-54
2022/03/27 05:50:42;;;;;;;3.92;0.78;;;;;;;2.53;52.30;100598.91;1791342;80;21547;-52
2022/03/27 05:53:10;;;;;;;5.45;0.75;;;;;;;2.56;52.10;100601.38;1768478;80;21033;-52
2022/03/27 05:55:36;;;;;;;3.72;1.22;;;;;;;2.57;51.99;100608.23;1722582;83;21075;-52
2022/03/27 05:58:04;;;;;;;7.60;1.50;;;;;;;2.54;51.91;100596.23;1765449;80;21140;-52
2022/03/27 06:00:31;;;;;;;5.97;0.95;;;;;;;2.56;51.91;100611.77;1779365;78;21019;-52
2022/03/27 06:02:58;;;;;;;5.28;1.30;;;;;;;2.59;51.81;100616.83;1777646;78;21337;-51
2022/03/27 06:05:25;;;;;;;3.08;0.90;;;;;;;2.62;51.48;100629.66;1781709;80;21050;-51
2022/03/27 06:07:56;;;;;;;8.33;0.82;;;;;;;2.59;51.25;100615.53;1772529;78;21074;-52
2022/03/27 06:10:33;;;;;;;4.42;1.10;;;;;;;2.58;51.26;100608.64;1772569;80;21231;-52
2022/03/27 06:13:01;;;;;;;4.10;0.95;;;;;;;2.54;51.61;100623.52;1779297;78;21070;-51
2022/03/27 06:15:29;;;;;;;3.90;1.10;;;;;;;2.55;51.70;100637.34;1769344;80;21521;-53
2022/03/27 06:17:56;;;;;;;6.55;0.90;;;;;;;2.51;51.59;100650.08;1783601;79;21120;-54
2022/03/27 06:20:27;;;;;;;2.72;0.80;;;;;;;2.50;51.33;100662.67;1779425;78;21592;-51
2022/03/27 06:22:56;;;;;;;3.75;0.80;;;;;;;2.37;48.78;100651.94;1781876;80;21486;-52
2022/03/27 06:25:25;;;;;;;2.90;0.60;;;;;;;2.40;49.09;100657.87;1787601;80;21011;-52
2022/03/27 06:27:53;;;;;;;2.77;0.75;;;;;;;2.39;47.74;100657.47;1775610;79;21082;-53
2022/03/27 06:30:22;;;;;;;3.87;0.65;;;;;;;2.43;46.58;100659.95;1764967;80;21084;-57
2022/03/27 06:32:49;;;;;;;1.80;0.60;;;;;;;2.49;46.82;100664.43;1774241;78;21047;-52
2022/03/27 06:35:16;;;;;;;3.52;0.72;;;;;;;2.56;47.09;100674.11;1788018;80;21135;-53
2022/03/27 06:37:45;;;;;;;8.18;0.80;;;;;;;2.63;46.93;100678.13;1783498;78;21058;-52
2022/03/27 06:40:14;;;;;;;3.70;0.90;;;;;;;2.67;46.79;100677.08;1771655;78;21038;-53
2022/03/27 06:42:44;;;;;;;2.10;0.72;;;;;;;2.66;45.93;100694.06;1774988;80;21077;-53
2022/03/27 06:45:13;;;;;;;3.25;0.98;;;;;;;2.70;46.35;100684.75;1777739;78;21077;-52
2022/03/27 06:47:42;;;;;;;2.95;0.88;;;;;;;2.79;46.26;100685.67;1775245;78;21136;-54
2022/03/27 06:50:09;;;;;;;3.47;0.90;;;;;;;2.81;43.88;100687.34;1780273;79;21057;-53
2022/03/27 06:52:36;;;;;;;2.52;0.90;;;;;;;2.77;43.41;100705.69;1780894;78;21086;-53
2022/03/27 06:55:05;;;;;;;4.05;1.50;;;;;;;2.78;44.54;100670.98;1783031;78;21572;-53
2022/03/27 06:57:33;;;;;;;4.83;0.88;;;;;;;2.84;44.31;100688.52;1779210;78;21093;-53
2022/03/27 07:03:05;;;;;;;5.20;0.80;;;;;;;2.91;42.60;100686.90;1780664;78;21081;-52
2022/03/27 07:05:40;;;;;;;3.40;0.98;;;;;;;2.91;41.54;100692.56;1779962;78;21000;-53
2022/03/27 07:08:13;;;;;;;3.50;0.80;;;;;;;2.91;41.88;100692.56;1782944;79;21014;-53
2022/03/27 07:10:43;;;;;;;6.95;1.10;;;;;;;2.77;40.53;100710.89;1774608;80;21005;-53
2022/03/27 07:13:14;;;;;;;7.58;2.40;;;;;;;2.69;41.38;100711.66;1770872;80;21147;-54
2022/03/27 07:15:41;;;;;;;12.98;1.55;;;;;;;2.59;40.69;100700.80;1764424;78;21070;-53
2022/03/27 07:18:08;;;;;;;5.55;1.67;;;;;;;2.65;40.84;100710.08;1773118;80;20991;-53
2022/03/27 07:20:37;;;;;;;6.78;1.12;;;;;;;2.73;40.85;100729.27;1778197;80;21057;-53
2022/03/27 07:23:06;;;;;;;2.30;0.60;;;;;;;2.81;41.12;100727.63;1777539;80;21030;-53
2022/03/27 07:25:34;;;;;;;3.47;0.75;;;;;;;2.77;37.96;100735.58;1782210;80;21223;-52
2022/03/27 07:28:04;;;;;;;1.80;0.50;;;;;;;2.63;37.67;100709.31;1777627;80;21466;-52
2022/03/27 07:30:33;;;;;;;3.15;0.47;;;;;;;2.61;38.23;100744.91;1774581;80;21514;-53
2022/03/27 07:33:00;;;;;;;4.28;0.62;;;;;;;2.53;37.96;100729.63;1774952;80;20995;-53
2022/03/27 07:35:30;;;;;;;2.42;0.68;;;;;;;2.60;38.57;100748.41;1777054;78;21117;-53
2022/03/27 07:37:56;;;;;;;3.10;0.85;;;;;;;2.66;38.25;100770.25;1772778;79;21145;-53
2022/03/27 07:40:23;;;;;;;1.95;0.50;;;;;;;2.66;37.44;100774.14;1780111;80;21093;-53
2022/03/27 07:42:51;;;;;;;1.40;0.40;;;;;;;2.60;37.03;100761.39;1751096;79;21067;-53
2022/03/27 07:45:19;;;;;;;1.15;0.33;;;;;;;2.51;37.05;100770.88;1777000;78;21600;-53
2022/03/27 07:47:47;;;;;;;2.85;0.50;;;;;;;2.51;36.76;100770.88;1784305;80;21031;-54
2022/03/27 07:50:13;;;;;;;3.10;0.60;;;;;;;2.55;37.11;100776.33;1783615;78;21078;-53
2022/03/27 07:52:41;;;;;;;3.72;0.98;;;;;;;2.65;36.91;100777.64;1779240;80;21142;-53
2022/03/27 07:55:09;;;;;;;4.08;1.17;;;;;;;2.60;36.02;100760.09;1783843;79;21066;-53
2022/03/27 07:57:36;;;;;;;3.42;0.90;;;;;;;2.52;35.45;100754.36;1766808;80;21422;-53
2022/03/27 08:00:07;;;;;;;5.80;1.15;;;;;;;2.48;36.12;100777.02;1771371;80;21009;-54
2022/03/27 08:02:37;;;;;;;3.90;1.05;;;;;;;2.48;35.20;100780.08;1769824;80;21839;-54
2022/03/27 08:05:08;;;;;;;4.97;1.05;;;;;;;2.52;35.45;100781.64;1766958;80;21434;-52
2022/03/27 08:07:35;;;;;;;4.65;0.78;;;;;;;2.54;36.20;100780.69;1774197;80;21025;-54
2022/03/27 08:10:05;;;;;;;4.00;0.70;;;;;;;2.52;35.81;100779.04;1770128;80;21046;-53
2022/03/27 08:12:35;;;;;;;3.17;1.02;;;;;;;2.62;35.86;100789.45;1770663;80;21053;-53
2022/03/27 08:15:04;;;;;;;3.58;0.75;;;;;;;2.74;36.21;100787.67;1767163;80;21206;-53
2022/03/27 08:17:32;;;;;;;3.87;0.68;;;;;;;2.85;36.05;100775.52;1777738;79;21042;-53
2022/03/27 08:19:59;;;;;;;2.45;0.82;;;;;;;2.88;35.49;100789.69;1755625;80;21061;-53
2022/03/27 08:22:26;;;;;;;2.67;0.80;;;;;;;2.82;36.52;100772.20;1751044;80;21037;-53
2022/03/27 08:24:54;;;;;;;2.00;0.55;;;;;;;2.79;37.34;100799.16;1752924;80;21045;-53
2022/03/27 08:27:21;;;;;;;2.02;0.70;;;;;;;2.76;38.02;100797.55;1747711;80;21926;-54
2022/03/27 08:29:48;;;;;;;3.47;0.90;;;;;;;2.59;38.33;100794.80;1755096;80;21042;-54
2022/03/27 08:32:16;;;;;;;2.72;0.90;;;;;;;2.63;39.34;100815.83;1750705;80;21113;-52
2022/03/27 08:34:45;;;;;;;4.33;1.92;;;;;;;2.65;39.57;100836.10;1758439;80;21010;-53
2022/03/27 08:37:14;;;;;;;5.20;1.98;;;;;;;2.63;41.31;100834.02;1742793;80;20994;-53
2022/03/27 08:39:44;;;;;;;4.92;1.70;;;;;;;2.64;42.08;100849.15;1749328;80;21116;-53
2022/03/27 08:42:09;;;;;;;14.85;1.98;;;;;;;2.62;44.91;100857.00;1756533;80;21093;-54
2022/03/27 08:44:37;;;;;;;3.58;1.32;;;;;;;2.56;47.62;100858.10;1746614;80;21532;-53
2022/03/27 08:47:13;;;;;;;5.30;1.80;;;;;;;2.58;45.55;100852.84;1754329;80;21014;-54
2022/03/27 08:49:50;;;;;;;5.67;1.60;;;;;;;2.59;45.44;100861.05;1766692;80;21473;-52
2022/03/27 08:52:47;;;;;;;5.80;1.82;;;;;;;2.65;44.79;100856.89;1770619;80;21146;-53
2022/03/27 08:55:21;;;;;;;8.75;2.27;;;;;;;2.71;43.76;100861.84;1772824;80;21021;-54
2022/03/27 08:57:56;;;;;;;4.92;1.55;;;;;;;2.75;43.29;100858.21;1769012;80;21338;-53
2022/03/27 09:00:25;;;;;;;4.15;1.17;;;;;;;2.70;40.46;100862.75;1767880;79;21015;-53
2022/03/27 09:02:54;;;;;;;4.00;1.15;;;;;;;2.69;39.30;100870.17;1763441;79;21093;-53
2022/03/27 09:05:22;;;;;;;5.55;1.20;;;;;;;2.64;40.38;100868.63;1775176;80;21077;-53
2022/03/27 09:07:50;;;;;;;2.20;0.60;;;;;;;2.78;40.18;100857.26;1770665;80;21041;-53
2022/03/27 09:10:17;;;;;;;2.75;0.70;;;;;;;2.84;39.46;100854.86;1771257;80;21073;-53
2022/03/27 09:12:45;;;;;;;3.67;0.62;;;;;;;2.79;37.63;100848.53;1776398;80;20995;-53
2022/03/27 09:15:12;;;;;;;3.52;0.60;;;;;;;2.86;37.68;100849.13;1776748;78;21573;-53
2022/03/27 09:18:01;;;;;;;4.55;0.85;;;;;;;2.98;37.07;100831.76;1774661;80;21147;-53
2022/03/27 09:20:40;;;;;;;6.55;1.42;;;;;;;3.10;37.44;100846.84;1774023;80;21086;-53
2022/03/27 09:23:21;;;;;;;2.33;0.70;;;;;;;3.20;36.03;100850.37;1772079;79;21528;-53
2022/03/27 09:25:58;;;;;;;3.08;1.00;;;;;;;3.26;35.97;100842.29;1775853;80;21117;-52
2022/03/27 09:28:42;;;;;;;2.47;0.60;;;;;;;3.37;35.91;100858.77;1776673;78;21060;-53
2022/03/27 09:31:22;;;;;;;2.70;0.60;;;;;;;3.39;34.96;100853.87;1777554;78;21976;-53
2022/03/27 09:33:55;;;;;;;3.75;1.27;;;;;;;3.48;35.07;100864.33;1774951;80;21106;-54
2022/03/27 09:36:28;;;;;;;7.20;0.85;;;;;;;3.47;35.29;100827.07;1780751;79;21007;-52
2022/03/27 09:39:19;;;;;;;11.45;1.27;;;;;;;3.46;35.56;100870.93;1776113;78;21541;-53
2022/03/27 09:41:54;;;;;;;2.87;0.75;;;;;;;3.43;35.08;100848.94;1776714;79;21007;-52
2022/03/27 09:44:25;;;;;;;2.62;0.80;;;;;;;3.39;34.79;100856.47;1773671;78;21234;-52
2022/03/27 09:46:59;;;;;;;4.30;1.30;;;;;;;3.38;35.08;100853.93;1775070;78;21058;-53
2022/03/27 09:49:40;;;;;;;2.90;0.85;;;;;;;3.37;35.08;100847.06;1775256;78;21044;-52
2022/03/27 09:52:20;;;;;;;4.35;1.00;;;;;;;3.38;35.46;100869.54;1775145;79;21135;-53
2022/03/27 09:54:59;;;;;;;9.33;1.20;;;;;;;3.33;35.15;100852.84;1780170;78;21042;-53
2022/03/27 09:57:38;;;;;;;4.15;1.22;;;;;;;3.36;35.17;100873.50;1770810;80;21161;-54
2022/03/27 10:00:18;;;;;;;3.10;0.82;;;;;;;3.33;34.77;100861.95;1777531;80;21085;-53
2022/03/27 10:02:47;;;;;;;6.50;0.88;;;;;;;3.46;35.05;100851.85;1766871;79;21046;-54
2022/03/27 10:05:17;;;;;;;3.60;0.98;;;;;;;3.60;34.78;100866.86;1767464;78;21421;-52
2022/03/27 10:07:56;;;;;;;3.27;0.90;;;;;;;3.66;34.53;100882.22;1772454;80;21106;-53
2022/03/27 10:10:24;;;;;;;3.95;1.30;;;;;;;3.61;33.94;100858.16;1775904;80;21044;-53
2022/03/27 10:12:55;;;;;;;2.60;1.00;;;;;;;3.66;34.84;100880.45;1775277;78;21023;-52
2022/03/27 10:15:25;;;;;;;4.33;1.00;;;;;;;3.72;34.84;100884.56;1775639;80;21533;-54
2022/03/27 10:18:12;;;;;;;2.75;0.95;;;;;;;3.74;34.23;100849.37;1778431;78;21133;-53
2022/03/27 10:20:39;;;;;;;3.42;1.20;;;;;;;3.71;33.64;100850.33;1773137;80;21093;-53
2022/03/27 10:23:18;;;;;;;8.05;1.70;;;;;;;3.65;34.55;100879.25;1776536;79;21125;-53
2022/03/27 10:25:50;;;;;;;5.10;1.30;;;;;;;3.64;35.18;100882.28;1775830;80;21141;-54
2022/03/27 10:28:20;;;;;;;4.95;1.42;;;;;;;3.68;34.90;100875.19;1765261;78;21010;-52
2022/03/27 10:30:50;;;;;;;3.80;1.30;;;;;;;3.81;34.81;100886.76;1770487;78;21114;-52
2022/03/27 10:33:18;;;;;;;5.42;1.30;;;;;;;3.83;34.10;100865.86;1775353;79;21058;-53
2022/03/27 10:35:59;;;;;;;2.95;0.90;;;;;;;3.84;34.38;100900.94;1774279;80;21861;-52
2022/03/27 10:39:05;;;;;;;12.00;1.15;;;;;;;3.79;34.45;100890.36;1771659;79;21726;-52
2022/03/27 10:42:06;;;;;;;4.65;1.35;;;;;;;3.74;34.55;100880.60;1766233;80;21018;-53
2022/03/27 10:45:04;;;;;;;3.72;1.15;;;;;;;3.68;35.00;100886.90;1742750;80;21280;-53
2022/03/27 10:47:30;;;;;;;4.45;1.45;;;;;;;3.71;34.95;100891.98;1768465;79;21034;-52
2022/03/27 10:50:08;;;;;;;4.17;1.30;;;;;;;3.83;35.12;100892.77;1771847;79;21183;-53
2022/03/27 10:52:45;;;;;;;3.22;1.22;;;;;;;3.94;34.60;100889.67;1760875;80;21086;-54
2022/03/27 10:55:14;;;;;;;4.83;1.15;;;;;;;4.01;33.79;100879.84;1742928;80;21046;-52
2022/03/27 10:57:43;;;;;;;5.47;1.30;;;;;;;4.02;34.08;100879.77;1758974;80;20987;-53
2022/03/27 11:00:11;;;;;;;3.65;1.22;;;;;;;4.09;33.89;100856.43;1768009;80;21014;-53
2022/03/27 11:02:53;;;;;;;5.03;1.37;;;;;;;4.14;32.82;100856.70;1759952;80;21348;-52
2022/03/27 11:05:37;;;;;;;3.27;0.95;;;;;;;4.24;33.06;100864.01;1773150;80;21526;-52
2022/03/27 11:08:20;;;;;;;3.00;1.00;;;;;;;4.38;32.82;100857.31;1772505;80;21554;-53
2022/03/27 11:10:52;;;;;;;2.50;0.65;;;;;;;4.43;32.94;100852.73;1756004;79;21085;-52
2022/03/27 11:13:31;;;;;;;2.50;0.82;;;;;;;4.36;32.18;100854.78;1769507;79;21074;-53
2022/03/27 11:16:11;;;;;;;2.42;0.60;;;;;;;4.39;32.36;100866.84;1752315;80;21276;-53
2022/03/27 11:18:46;;;;;;;5.67;0.85;;;;;;;4.42;31.74;100862.76;1778133;78;21562;-53
2022/03/27 11:21:30;;;;;;;5.17;0.98;;;;;;;4.52;32.26;100861.88;1787405;79;21530;-53
2022/03/27 11:24:09;;;;;;;5.33;1.10;;;;;;;4.50;31.34;100857.20;1770151;79;21030;-52
2022/03/27 11:26:37;;;;;;;3.42;1.17;;;;;;;4.58;31.52;100867.64;1775911;79;21050;-53
2022/03/27 11:29:24;;;;;;;10.18;1.60;;;;;;;4.72;31.60;100875.27;1769023;79;21051;-52
2022/03/27 11:32:09;;;;;;;4.00;1.42;;;;;;;4.89;30.84;100864.86;1768510;80;21045;-51
2022/03/27 11:34:36;;;;;;;3.30;0.95;;;;;;;5.11;30.76;100852.08;1800989;78;21091;-52
2022/03/27 11:37:23;;;;;;;3.17;0.70;;;;;;;5.10;28.63;100853.02;1761876;80;21113;-53
2022/03/27 11:39:46;;;;;;;2.98;0.93;;;;;;;5.13;28.70;100869.35;1772094;80;21069;-52
2022/03/27 11:42:34;;;;;;;4.97;0.95;;;;;;;5.14;29.35;100874.94;1731103;79;21140;-53
2022/03/27 11:45:17;;;;;;;3.30;0.82;;;;;;;5.19;28.72;100848.62;1772041;79;21062;-52
2022/03/27 11:47:50;;;;;;;3.75;1.30;;;;;;;5.25;28.11;100867.90;1773617;79;21109;-52
2022/03/27 11:50:24;;;;;;;4.35;1.30;;;;;;;5.33;28.74;100870.10;1771845;80;21084;-53
2022/03/27 11:52:51;;;;;;;3.95;1.37;;;;;;;5.38;28.69;100855.92;1769261;80;21126;-52